Time;durP1;ratioP1;P1;durP2;ratioP2;P2;SDS_P1;SDS_P2;PMS_P1;PMS_P2;Temp;Humidity;BMP_temperature;BMP_pressure;BME280_temperature;BME280_humidity;BME280_pressure;Samples;Min_cycle;Max_cycle;Signal;HPM_P1;HPM_P2
2022/01/20 00:00:43;;;;;;;;;;;;;;;4.92;97.57;102368.78;4880384;29;20049;-48
2022/01/20 00:03:16;;;;;;;20.95;6.00;;;;;;;4.91;97.58;102359.03;4880487;29;19935;-52
2022/01/20 00:27:28;;;;;;;17.00;5.22;;;;;;;4.88;97.23;102372.88;4863212;29;20415;-54
2022/01/20 00:32:45;;;;;;;20.83;5.40;;;;;;;4.84;96.98;102377.84;4880024;29;20045;-50
2022/01/20 00:37:14;;;;;;;22.98;5.28;;;;;;;4.84;97.20;102377.84;4880157;29;20052;-52
2022/01/20 00:38:03;;;;;;;21.38;6.20;;;;;;;4.84;97.01;102377.84;4877698;29;20048;-53
2022/01/20 00:40:31;;;;;;;20.15;5.32;;;;;;;4.84;96.78;102385.94;4879682;29;20472;-50
2022/01/20 00:42:58;;;;;;;20.45;5.80;;;;;;;4.82;96.98;102384.47;4878616;29;20044;-51
2022/01/20 00:45:26;;;;;;;21.25;4.97;;;;;;;4.80;97.07;102371.16;4879778;29;20059;-53
2022/01/20 00:47:54;;;;;;;21.25;5.47;;;;;;;4.81;96.84;102371.97;4863201;29;20411;-51
2022/01/20 00:50:21;;;;;;;20.88;5.40;;;;;;;4.82;97.00;102373.66;4879586;29;20053;-50
2022/01/20 00:52:50;;;;;;;16.00;5.10;;;;;;;4.82;97.02;102368.28;4879867;29;20443;-50
2022/01/20 00:55:18;;;;;;;17.55;5.32;;;;;;;4.83;96.79;102378.03;4879983;29;20045;-52
2022/01/20 00:57:46;;;;;;;15.73;4.50;;;;;;;4.82;96.72;102382.59;4879592;29;20056;-52
2022/01/20 01:00:16;;;;;;;17.02;5.35;;;;;;;4.83;96.89;102383.44;4878731;29;20037;-53
2022/01/20 01:02:44;;;;;;;17.20;5.13;;;;;;;4.82;96.89;102377.19;4863374;29;20041;-52
2022/01/20 01:05:14;;;;;;;18.20;4.65;;;;;;;4.82;96.29;102376.38;4879419;29;20152;-49
2022/01/20 01:10:09;;;;;;;17.25;4.90;;;;;;;4.81;96.39;102394.44;4879182;29;20056;-57
2022/01/20 01:15:18;;;;;;;14.40;5.07;;;;;;;4.79;96.66;102401.06;4879311;29;20052;-53
2022/01/20 01:20:57;;;;;;;19.25;4.60;;;;;;;4.76;96.79;102402.25;4879089;29;20053;-54
2022/01/20 01:23:21;;;;;;;14.48;4.22;;;;;;;4.76;96.30;102401.41;4878318;29;20440;-51
2022/01/20 01:25:49;;;;;;;13.07;4.00;;;;;;;4.74;96.63;102404.34;4879447;29;20055;-52
2022/01/20 01:28:18;;;;;;;13.57;3.88;;;;;;;4.75;96.86;102405.16;4878352;29;20048;-53
2022/01/20 01:33:13;;;;;;;13.00;3.78;;;;;;;4.78;96.65;102400.19;4878868;29;20504;-54
2022/01/20 01:35:42;;;;;;;14.20;4.47;;;;;;;4.80;96.56;102398.16;4879290;29;20057;-49
2022/01/20 01:40:41;;;;;;;14.43;4.35;;;;;;;4.83;96.82;102386.13;4862211;29;20448;-51
2022/01/20 01:43:17;;;;;;;13.65;4.18;;;;;;;4.84;96.77;102387.81;4862724;29;20137;-50
2022/01/20 01:45:46;;;;;;;15.77;4.95;;;;;;;4.83;96.37;102386.97;4879278;29;20053;-54
2022/01/20 01:48:16;;;;;;;12.55;3.90;;;;;;;4.80;96.58;102387.34;4862612;29;20053;-52
2022/01/20 01:50:45;;;;;;;16.63;4.28;;;;;;;4.78;97.23;102394.81;4877616;29;20041;-52
2022/01/20 01:53:14;;;;;;;14.15;5.20;;;;;;;4.81;97.14;102393.56;4878063;29;20128;-51
2022/01/20 01:55:42;;;;;;;15.00;4.03;;;;;;;4.82;97.36;102392.56;4862629;29;20045;-50
2022/01/20 01:58:10;;;;;;;15.98;4.00;;;;;;;4.84;97.32;102401.31;4862337;29;20127;-52
2022/01/20 02:00:49;;;;;;;17.33;5.10;;;;;;;4.84;97.12;102395.91;4877339;29;20115;-51
2022/01/20 02:03:18;;;;;;;16.10;4.55;;;;;;;4.84;96.95;102404.84;4878036;29;20049;-53
2022/01/20 02:19:54;;;;;;;13.77;4.43;;;;;;;4.79;96.68;102412.69;4893262;29;20072;-53
2022/01/20 02:22:37;;;;;;;15.43;4.47;;;;;;;4.77;96.73;102417.44;4877985;29;20053;-49
2022/01/20 02:25:24;;;;;;;17.33;4.60;;;;;;;4.75;96.88;102405.16;4865420;29;20046;-55
2022/01/20 02:27:52;;;;;;;16.73;4.13;;;;;;;4.75;96.86;102405.16;4865529;29;20503;-52
2022/01/20 02:30:22;;;;;;;14.93;3.92;;;;;;;4.75;96.85;102400.59;4865107;29;20515;-53
2022/01/20 02:32:56;;;;;;;16.60;4.55;;;;;;;4.76;97.17;102406.81;4864041;29;20068;-51
2022/01/20 02:35:26;;;;;;;14.40;4.00;;;;;;;4.76;97.04;102412.22;4860905;29;20045;-51
2022/01/20 02:38:00;;;;;;;14.05;4.22;;;;;;;4.75;97.22;102405.16;4865581;29;20080;-52
2022/01/20 02:46:10;;;;;;;13.82;4.13;;;;;;;4.77;97.36;102393.13;4862400;29;20045;-47
2022/01/20 02:48:38;;;;;;;15.57;4.30;;;;;;;4.78;97.53;102383.16;4862312;29;20083;-52
2022/01/20 02:51:06;;;;;;;13.35;4.07;;;;;;;4.78;97.43;102389.41;4862390;29;20046;-52
2022/01/20 02:53:34;;;;;;;16.90;3.75;;;;;;;4.76;97.51;102386.03;4877897;29;20119;-54
2022/01/20 02:56:02;;;;;;;14.68;3.95;;;;;;;4.76;97.72;102386.03;4865475;29;20053;-55
2022/01/20 02:58:30;;;;;;;14.95;4.05;;;;;;;4.76;97.80;102387.91;4880630;29;20479;-54
2022/01/20 03:00:59;;;;;;;12.98;4.00;;;;;;;4.76;98.01;102390.63;4879611;29;20089;-52
2022/01/20 03:03:27;;;;;;;11.43;4.00;;;;;;;4.75;97.96;102387.09;4860892;29;20047;-52
2022/01/20 03:05:54;;;;;;;14.23;4.07;;;;;;;4.75;98.04;102387.09;4861131;29;20492;-51
2022/01/20 03:08:22;;;;;;;15.75;4.00;;;;;;;4.76;97.87;102390.63;4880871;29;20045;-53
2022/01/20 03:10:50;;;;;;;13.15;4.05;;;;;;;4.74;97.75;102388.13;4881605;29;20068;-53
2022/01/20 03:13:17;;;;;;;12.98;3.70;;;;;;;4.75;97.53;102383.56;4881126;29;20037;-54
2022/01/20 03:15:45;;;;;;;14.45;4.10;;;;;;;4.73;97.28;102372.94;4881518;29;20041;-51
2022/01/20 03:18:14;;;;;;;15.75;4.50;;;;;;;4.75;97.05;102388.97;4864494;29;20526;-51
2022/01/20 03:20:42;;;;;;;11.32;3.60;;;;;;;4.74;97.43;102376.47;4881734;29;20040;-52
2022/01/20 03:23:09;;;;;;;11.20;3.58;;;;;;;4.75;97.32;102388.97;4864023;29;20499;-52
2022/01/20 03:25:38;;;;;;;15.32;3.70;;;;;;;4.75;97.35;102388.97;4881431;29;20049;-52
2022/01/20 03:28:05;;;;;;;10.45;3.75;;;;;;;4.75;97.62;102387.09;4880160;29;20132;-55
2022/01/20 03:30:34;;;;;;;16.33;4.00;;;;;;;4.78;98.37;102415.56;4880776;29;20071;-52
2022/01/20 03:33:03;;;;;;;12.27;4.03;;;;;;;4.72;98.22;102405.53;4879398;29;20072;-51
2022/01/20 03:35:32;;;;;;;11.80;3.40;;;;;;;4.72;98.09;102398.28;4879089;29;20522;-51
2022/01/20 03:38:26;;;;;;;10.13;2.90;;;;;;;4.67;97.06;102398.84;4866037;29;20587;-53
2022/01/20 03:40:55;;;;;;;10.73;2.85;;;;;;;4.63;96.60;102399.41;4864725;29;20132;-51
2022/01/20 03:43:23;;;;;;;9.77;2.70;;;;;;;4.59;96.62;102404.34;4864033;29;20065;-51
2022/01/20 03:45:55;;;;;;;8.20;2.38;;;;;;;4.58;97.09;102372.16;4880028;29;20045;-52
2022/01/20 03:48:26;;;;;;;5.68;2.35;;;;;;;4.49;97.58;102377.66;4880975;29;20088;-54
2022/01/20 03:51:01;;;;;;;10.07;2.67;;;;;;;4.52;98.24;102371.03;4864661;29;20136;-52
2022/01/20 03:53:38;;;;;;;8.52;2.50;;;;;;;4.53;98.51;102378.13;4863749;29;20071;-52
2022/01/20 03:56:12;;;;;;;7.10;2.28;;;;;;;4.55;98.85;102370.66;4863932;29;20045;-50
2022/01/20 03:59:07;;;;;;;;;;;;;;;4.59;99.05;102380.03;4864323;29;20139;-48
2022/01/20 04:01:35;;;;;;;11.70;3.28;;;;;;;4.60;99.42;102389.00;4863479;29;19973;-53
2022/01/20 04:04:19;;;;;;;8.00;2.58;;;;;;;4.63;99.38;102375.13;4864062;29;20045;-54
2022/01/20 04:07:02;;;;;;;11.25;3.10;;;;;;;4.63;99.37;102380.50;4864102;29;20041;-53
2022/01/20 04:09:30;;;;;;;14.30;3.55;;;;;;;4.63;99.34;102386.75;4881310;29;20417;-52
2022/01/20 04:11:58;;;;;;;9.05;3.30;;;;;;;4.62;99.38;102384.25;4863624;29;20055;-53
2022/01/20 04:14:28;;;;;;;10.93;3.55;;;;;;;4.65;99.52;102389.25;4880314;29;20079;-51
2022/01/20 04:19:26;;;;;;;11.38;3.05;;;;;;;4.64;99.22;102396.53;4879246;29;20053;-54
2022/01/20 04:21:54;;;;;;;12.38;3.78;;;;;;;4.63;99.78;102392.16;4878866;29;20041;-52
2022/01/20 04:24:22;;;;;;;13.02;3.45;;;;;;;4.64;99.72;102396.53;4879129;29;20064;-54
2022/01/20 04:26:50;;;;;;;11.48;3.70;;;;;;;4.63;98.82;102408.34;4863925;29;20045;-52
2022/01/20 04:29:19;;;;;;;16.83;3.55;;;;;;;4.61;98.07;102420.34;4863851;29;20415;-57
2022/01/20 04:31:49;;;;;;;16.45;4.07;;;;;;;4.57;98.63;102429.84;4864320;29;20144;-57
2022/01/20 04:34:17;;;;;;;12.50;3.70;;;;;;;4.56;99.41;102452.47;4844699;29;20124;-57
2022/01/20 04:36:47;;;;;;;13.45;4.22;;;;;;;4.49;99.99;102449.69;4845152;29;20053;-56
2022/01/20 04:39:20;;;;;;;13.02;3.30;;;;;;;4.43;99.91;102461.25;4845079;29;20041;-54
2022/01/20 04:41:49;;;;;;;9.93;3.20;;;;;;;4.36;100.00;102476.50;4860070;29;20038;-57
2022/01/20 04:44:35;;;;;;;9.75;3.00;;;;;;;4.31;99.80;102447.38;4844939;29;20088;-55
2022/01/20 04:47:27;;;;;;;9.77;2.70;;;;;;;4.32;100.00;102445.50;4844775;29;20073;-55
2022/01/20 04:58:15;;;;;;;7.78;2.63;;;;;;;4.40;100.00;102446.28;4860220;29;20048;-53
2022/01/20 05:00:42;;;;;;;9.10;3.10;;;;;;;4.43;100.00;102453.16;4860985;29;20076;-50
2022/01/20 05:03:43;;;;;;;9.60;3.47;;;;;;;4.46;100.00;102455.47;4861339;29;20527;-54
2022/01/20 05:06:25;;;;;;;11.85;3.38;;;;;;;4.49;100.00;102460.47;4843816;29;20072;-56
2022/01/20 05:08:53;;;;;;;8.48;2.83;;;;;;;4.51;100.00;102450.34;4844699;29;20077;-54
2022/01/20 05:11:21;;;;;;;9.95;3.03;;;;;;;4.51;100.00;102453.03;4844292;29;20045;-55
2022/01/20 05:13:49;;;;;;;8.73;3.10;;;;;;;4.51;100.00;102453.03;4844175;29;20453;-54
2022/01/20 05:16:18;;;;;;;10.10;3.03;;;;;;;4.52;100.00;102461.97;4843774;29;20073;-55
2022/01/20 05:18:50;;;;;;;12.50;3.03;;;;;;;4.51;100.00;102473.81;4844228;29;20073;-52
2022/01/20 05:21:18;;;;;;;9.48;2.78;;;;;;;4.50;100.00;102478.38;4844258;29;20045;-53
2022/01/20 05:23:46;;;;;;;8.50;3.00;;;;;;;4.52;100.00;102487.09;4844263;29;20053;-54
2022/01/20 05:26:13;;;;;;;10.73;3.13;;;;;;;4.50;100.00;102494.56;4860726;29;20073;-53
2022/01/20 05:28:44;;;;;;;8.60;3.05;;;;;;;4.49;100.00;102495.56;4844737;29;20057;-51
2022/01/20 05:31:11;;;;;;;13.63;3.30;;;;;;;4.47;100.00;102511.09;4868684;29;20548;-52
2022/01/20 05:33:50;;;;;;;11.13;3.20;;;;;;;4.39;99.98;102508.50;4878419;29;20128;-52
2022/01/20 05:36:22;;;;;;;9.77;3.05;;;;;;;4.37;99.96;102511.38;4878178;29;20097;-51
2022/01/20 05:38:51;;;;;;;14.93;3.55;;;;;;;4.22;100.00;102526.72;4862826;29;20041;-58
2022/01/20 05:41:18;;;;;;;13.27;3.40;;;;;;;4.18;100.00;102528.94;4862486;29;20045;-53
2022/01/20 05:43:47;;;;;;;13.68;3.80;;;;;;;4.18;100.00;102528.94;4877761;29;20052;-56
2022/01/20 05:46:17;;;;;;;13.95;3.97;;;;;;;4.18;99.90;102522.72;4878129;29;20049;-48
2022/01/20 05:48:48;;;;;;;13.52;3.95;;;;;;;4.14;100.00;102527.66;4878375;29;20127;-49
2022/01/20 05:51:33;;;;;;;14.35;4.43;;;;;;;4.08;99.79;102527.53;4862341;29;20081;-51
2022/01/20 05:54:00;;;;;;;16.50;4.50;;;;;;;4.02;99.61;102546.13;4862987;29;20056;-51
2022/01/20 05:56:29;;;;;;;15.35;4.28;;;;;;;4.02;100.00;102546.13;4877953;29;20089;-48
2022/01/20 05:58:57;;;;;;;15.27;4.35;;;;;;;4.02;99.81;102545.31;4862663;29;20070;-49
2022/01/20 06:01:24;;;;;;;21.00;4.80;;;;;;;4.03;99.11;102544.25;4882407;29;20517;-49
2022/01/20 06:03:57;;;;;;;20.98;5.25;;;;;;;4.00;98.93;102545.47;4865728;29;20045;-50
2022/01/20 06:06:27;;;;;;;16.35;4.75;;;;;;;4.01;99.55;102544.44;4881179;29;20128;-48
2022/01/20 06:08:55;;;;;;;15.63;4.40;;;;;;;4.00;98.66;102540.06;4850712;29;20140;-47
2022/01/20 06:11:23;;;;;;;18.20;4.57;;;;;;;4.04;98.70;102545.94;4882220;29;20478;-48
2022/01/20 06:13:52;;;;;;;14.90;3.83;;;;;;;4.08;98.56;102549.94;4865772;29;20041;-48
2022/01/20 06:16:20;;;;;;;21.98;4.93;;;;;;;4.10;98.61;102553.31;4880004;29;20496;-51
2022/01/20 06:18:48;;;;;;;14.43;4.03;;;;;;;4.07;98.18;102548.28;4865564;29;20078;-50
2022/01/20 06:21:15;;;;;;;19.27;4.53;;;;;;;4.07;97.40;102564.47;4865002;29;20052;-50
2022/01/20 06:23:43;;;;;;;20.77;5.18;;;;;;;4.06;97.66;102562.78;4880691;29;20048;-53
2022/01/20 06:26:12;;;;;;;20.73;5.07;;;;;;;4.08;97.74;102582.31;4880659;29;20512;-49
2022/01/20 06:28:40;;;;;;;20.15;5.30;;;;;;;4.03;98.05;102579.31;4881194;29;20045;-52
2022/01/20 06:31:10;;;;;;;17.30;4.50;;;;;;;4.04;97.70;102581.00;4527158;29;9999750;-52
2022/01/20 06:33:39;;;;;;;18.40;4.85;;;;;;;4.08;97.60;102582.31;4847118;29;20105;-49
2022/01/20 06:36:09;;;;;;;22.70;5.32;;;;;;;4.10;97.86;102580.28;4862184;29;20074;-51
2022/01/20 06:38:36;;;;;;;19.13;4.55;;;;;;;4.05;97.05;102588.09;4878951;29;20050;-47
2022/01/20 06:41:04;;;;;;;19.25;5.40;;;;;;;4.03;97.16;102582.03;4877708;29;20051;-49
2022/01/20 06:43:34;;;;;;;16.85;4.45;;;;;;;4.04;96.81;102594.47;4877610;29;20068;-50
2022/01/20 06:46:03;;;;;;;18.83;4.68;;;;;;;4.04;96.24;102586.38;4862238;29;20057;-47
2022/01/20 06:48:51;;;;;;;18.92;5.40;;;;;;;4.03;94.38;102593.66;4859098;29;20504;-51
2022/01/20 06:51:51;;;;;;;16.83;4.57;;;;;;;4.07;94.61;102599.53;4802786;29;20485;-52
2022/01/20 06:54:19;;;;;;;19.75;4.78;;;;;;;4.08;94.52;102603.06;4819644;29;20043;-56
2022/01/20 06:56:46;;;;;;;18.67;4.68;;;;;;;4.08;94.01;102605.75;4805146;29;20054;-52
2022/01/20 06:59:16;;;;;;;18.58;4.82;;;;;;;4.11;93.80;102614.31;4805222;29;20077;-50
2022/01/20 07:01:45;;;;;;;19.45;4.65;;;;;;;4.10;92.63;102612.66;4820526;29;20054;-50
2022/01/20 07:04:19;;;;;;;20.23;5.43;;;;;;;4.07;91.38;102629.22;4820767;29;20100;-48
2022/01/20 07:06:47;;;;;;;23.45;5.57;;;;;;;4.05;90.71;102647.44;4805660;29;20201;-50
2022/01/20 07:09:33;;;;;;;16.45;4.63;;;;;;;4.00;90.14;102631.78;4820028;29;20058;-54
2022/01/20 07:12:09;;;;;;;15.15;4.78;;;;;;;4.04;90.49;102630.41;4805080;29;20062;-51
2022/01/20 07:14:38;;;;;;;17.88;4.85;;;;;;;4.14;90.04;102623.94;4820283;29;20058;-50
2022/01/20 07:17:06;;;;;;;17.80;4.88;;;;;;;4.12;89.69;102620.56;4820316;29;20046;-51
2022/01/20 07:19:35;;;;;;;18.33;4.82;;;;;;;4.07;87.55;102626.50;4790174;29;20051;-49
2022/01/20 07:22:05;;;;;;;16.67;4.80;;;;;;;4.04;87.14;102632.25;4805082;29;20046;-48
2022/01/20 07:24:33;;;;;;;18.42;4.65;;;;;;;3.99;86.28;102642.72;4820268;29;20062;-46
2022/01/20 07:27:11;;;;;;;22.65;5.20;;;;;;;3.96;85.77;102649.31;4825266;29;20061;-49
2022/01/20 07:29:39;;;;;;;18.67;4.65;;;;;;;3.98;85.42;102646.47;4877744;29;20500;-49
2022/01/20 07:32:08;;;;;;;17.83;4.32;;;;;;;4.00;84.97;102655.22;4860214;29;20557;-52
2022/01/20 07:34:36;;;;;;;16.80;4.57;;;;;;;3.99;84.73;102659.78;4876406;29;20631;-51
2022/01/20 07:37:05;;;;;;;15.90;4.10;;;;;;;3.98;85.40;102662.66;4861012;29;20048;-49
2022/01/20 07:39:34;;;;;;;16.73;4.80;;;;;;;3.97;84.18;102660.94;4860973;29;20136;-50
2022/01/20 07:42:04;;;;;;;17.40;4.65;;;;;;;3.99;84.48;102654.38;4877337;29;20749;-51
2022/01/20 07:45:07;;;;;;;14.82;4.53;;;;;;;4.04;83.17;102656.50;4801819;29;20051;-50
2022/01/20 07:48:08;;;;;;;18.23;4.82;;;;;;;3.99;80.49;102664.31;4783773;30;20061;-50
2022/01/20 07:50:37;;;;;;;13.85;3.97;;;;;;;4.00;81.62;102663.31;4783263;30;20556;-50
2022/01/20 07:53:05;;;;;;;14.30;4.22;;;;;;;4.02;82.53;102663.97;4783001;30;20070;-50
2022/01/20 07:55:33;;;;;;;19.48;4.75;;;;;;;4.04;81.13;102678.97;4783559;30;20510;-49
2022/01/20 07:58:04;;;;;;;17.05;4.35;;;;;;;4.03;80.31;102681.81;4783289;30;20061;-47
2022/01/20 08:00:48;;;;;;;19.17;4.90;;;;;;;4.03;80.52;102682.66;4768020;30;20156;-48
2022/01/20 08:03:16;;;;;;;17.25;3.80;;;;;;;4.04;81.70;102687.06;4782694;30;20604;-50
2022/01/20 08:05:59;;;;;;;17.80;4.93;;;;;;;4.09;81.44;102686.50;4783300;29;20146;-54
2022/01/20 08:08:32;;;;;;;17.25;4.80;;;;;;;4.09;80.68;102696.44;4782967;30;20138;-50
2022/01/20 08:11:22;;;;;;;13.82;4.35;;;;;;;4.12;81.39;102702.34;4782906;30;20625;-49
2022/01/20 08:13:55;;;;;;;16.23;4.25;;;;;;;4.11;80.23;102710.59;4783968;30;20151;-48
2022/01/20 08:16:23;;;;;;;15.43;4.68;;;;;;;4.10;80.45;102712.47;4786091;30;20134;-50
2022/01/20 08:18:53;;;;;;;10.80;4.03;;;;;;;4.11;80.73;102713.28;4796235;29;20089;-50
2022/01/20 08:21:21;;;;;;;12.15;4.07;;;;;;;4.11;80.56;102711.44;4815089;29;20083;-50
2022/01/20 08:23:51;;;;;;;16.73;4.50;;;;;;;4.16;80.78;102721.69;4827171;29;20155;-50
2022/01/20 08:26:18;;;;;;;16.02;4.60;;;;;;;4.16;78.01;102714.47;4879635;29;20124;-49
2022/01/20 08:28:46;;;;;;;22.65;4.82;;;;;;;4.18;78.41;102723.19;4862659;29;20060;-51
2022/01/20 08:31:14;;;;;;;16.80;4.32;;;;;;;4.18;77.70;102728.59;4877905;29;20580;-50
2022/01/20 08:33:41;;;;;;;12.68;3.72;;;;;;;4.15;76.99;102734.34;4879215;29;20408;-51
2022/01/20 08:36:17;;;;;;;17.33;3.90;;;;;;;4.13;77.64;102725.59;4878899;29;20080;-53
2022/01/20 08:38:49;;;;;;;16.92;4.10;;;;;;;4.10;77.62;102728.66;4863292;29;20049;-50
2022/01/20 08:41:18;;;;;;;15.70;4.60;;;;;;;4.11;78.47;102733.00;4863187;29;20127;-54
2022/01/20 08:43:45;;;;;;;14.52;4.00;;;;;;;4.13;78.86;102736.38;4879685;29;20128;-48
2022/01/20 08:46:19;;;;;;;15.68;3.88;;;;;;;4.16;79.11;102738.75;4878331;29;20416;-48
2022/01/20 08:48:47;;;;;;;15.23;4.07;;;;;;;4.13;78.88;102733.66;4879601;29;20037;-48
2022/01/20 08:51:19;;;;;;;17.67;4.35;;;;;;;4.13;78.94;102741.78;4878091;29;20044;-53
2022/01/20 08:54:04;;;;;;;18.10;4.43;;;;;;;4.13;79.09;102744.47;4878319;29;20128;-50
2022/01/20 08:56:34;;;;;;;13.57;3.95;;;;;;;4.11;79.24;102751.06;4878324;29;20060;-50
2022/01/20 08:59:05;;;;;;;20.70;4.18;;;;;;;4.08;78.75;102754.94;4862127;29;20040;-49
2022/01/20 09:01:34;;;;;;;15.63;4.40;;;;;;;4.05;79.45;102750.75;4863031;29;20041;-48
2022/01/20 09:04:02;;;;;;;20.30;4.55;;;;;;;4.03;79.37;102749.25;4862742;29;20415;-51
2022/01/20 09:06:30;;;;;;;15.52;4.05;;;;;;;4.02;79.64;102761.06;4878168;29;20052;-50
2022/01/20 09:09:10;;;;;;;16.15;4.25;;;;;;;4.04;79.63;102759.88;4877831;29;20053;-50
2022/01/20 09:11:50;;;;;;;16.55;4.85;;;;;;;4.04;80.31;102767.09;4877951;29;20504;-50
2022/01/20 09:17:05;;;;;;;13.65;4.05;;;;;;;4.04;81.21;102759.00;4878107;29;20048;-51
2022/01/20 09:19:33;;;;;;;14.68;4.63;;;;;;;4.03;81.38;102762.72;4877624;29;20045;-50
2022/01/20 09:22:05;;;;;;;18.55;4.72;;;;;;;4.04;81.21;102761.72;4877576;29;20103;-50
2022/01/20 09:24:34;;;;;;;12.38;3.95;;;;;;;3.99;81.16;102762.25;4878296;29;20037;-50
2022/01/20 09:27:04;;;;;;;17.10;4.57;;;;;;;4.01;81.32;102762.06;4862903;29;20037;-50
2022/01/20 09:29:32;;;;;;;18.45;4.88;;;;;;;4.04;81.88;102764.41;4879094;29;20081;-52
2022/01/20 09:32:04;;;;;;;17.27;4.82;;;;;;;4.04;81.41;102772.50;4862226;29;20045;-50
2022/01/20 09:34:34;;;;;;;16.15;4.75;;;;;;;4.04;81.12;102772.50;4865320;29;20056;-53
2022/01/20 09:37:02;;;;;;;20.45;4.82;;;;;;;3.98;80.67;102763.25;4866582;29;20045;-52
2022/01/20 09:39:37;;;;;;;14.82;3.67;;;;;;;3.99;81.94;102766.78;4866260;29;20532;-52
2022/01/20 09:42:34;;;;;;;14.50;4.32;;;;;;;4.03;81.97;102762.72;4865952;29;20102;-51
2022/01/20 09:45:03;;;;;;;16.00;4.72;;;;;;;4.04;81.56;102761.72;4866381;29;20469;-51
2022/01/20 09:47:30;;;;;;;19.15;4.75;;;;;;;4.07;82.59;102777.56;4881840;29;20467;-49
2022/01/20 09:50:25;;;;;;;14.15;4.35;;;;;;;4.05;81.93;102787.69;4881857;29;20056;-48
2022/01/20 09:53:23;;;;;;;16.20;4.55;;;;;;;4.00;82.37;102785.50;4825367;29;20058;-49
2022/01/20 09:56:07;;;;;;;18.70;4.95;;;;;;;4.00;82.43;102792.75;4810459;29;20054;-52
2022/01/20 09:58:38;;;;;;;16.88;4.80;;;;;;;3.98;82.68;102797.50;4810210;29;20046;-50
2022/01/20 10:01:05;;;;;;;21.60;4.88;;;;;;;4.00;83.46;102808.94;4809570;29;20120;-51
2022/01/20 10:03:35;;;;;;;14.45;4.30;;;;;;;4.02;82.95;102815.00;4809138;29;20078;-51
2022/01/20 10:06:04;;;;;;;17.85;4.93;;;;;;;4.00;82.75;102811.66;4810338;29;20051;-50
2022/01/20 10:08:38;;;;;;;16.67;4.50;;;;;;;4.04;83.26;102818.34;4825275;29;20058;-48
2022/01/20 10:11:21;;;;;;;17.85;4.60;;;;;;;4.10;83.70;102817.66;4816785;29;20058;-48
2022/01/20 10:14:08;;;;;;;19.40;5.45;;;;;;;4.22;86.51;102813.56;4782259;29;20429;-51
2022/01/20 10:17:12;;;;;;;18.38;4.38;;;;;;;4.77;85.83;102808.16;4821389;29;20053;-50
2022/01/20 10:19:41;;;;;;;20.70;4.65;;;;;;;4.83;80.84;102810.97;4809952;29;20136;-48
2022/01/20 10:22:27;;;;;;;16.58;4.60;;;;;;;4.72;80.58;102821.38;4809444;29;20042;-46
2022/01/20 10:25:14;;;;;;;19.75;4.50;;;;;;;4.59;81.29;102819.25;4809384;29;20055;-52
2022/01/20 10:28:00;;;;;;;19.10;5.65;;;;;;;4.47;80.80;102840.41;4809702;29;20061;-51
2022/01/20 10:30:30;;;;;;;14.98;4.75;;;;;;;4.36;80.11;102836.25;4851989;29;20061;-51
2022/01/20 10:33:00;;;;;;;18.17;4.75;;;;;;;4.31;80.60;102844.03;4865226;29;20052;-50
2022/01/20 10:35:36;;;;;;;16.60;4.65;;;;;;;4.30;80.66;102857.69;4864997;29;20141;-51
2022/01/20 10:38:13;;;;;;;15.45;4.65;;;;;;;4.27;81.05;102857.03;4881215;29;20056;-52
2022/01/20 10:40:52;;;;;;;18.65;4.45;;;;;;;4.29;81.27;102864.13;4865719;29;20093;-49
2022/01/20 10:43:27;;;;;;;19.15;5.20;;;;;;;4.26;80.36;102855.38;4865392;29;20470;-50
2022/01/20 10:46:13;;;;;;;16.15;4.50;;;;;;;4.26;79.99;102847.28;4864358;29;20052;-49
2022/01/20 10:48:41;;;;;;;21.13;5.30;;;;;;;4.28;79.57;102871.34;4880853;29;20470;-50
2022/01/20 10:51:20;;;;;;;18.63;4.78;;;;;;;4.30;78.59;102860.41;4880837;29;20104;-50
2022/01/20 10:54:13;;;;;;;19.15;5.35;;;;;;;4.30;77.07;102877.44;4865236;29;20132;-48
2022/01/20 10:56:48;;;;;;;18.27;5.05;;;;;;;4.31;77.41;102872.91;4880354;29;20041;-51
2022/01/20 10:59:16;;;;;;;18.15;5.00;;;;;;;4.32;78.13;102874.56;4880567;29;20041;-48
2022/01/20 11:01:55;;;;;;;15.93;4.70;;;;;;;4.37;78.46;102874.88;4864719;29;20093;-50
2022/01/20 11:04:24;;;;;;;18.27;5.35;;;;;;;4.30;80.07;102893.63;4864370;29;20060;-51
2022/01/20 11:06:55;;;;;;;21.58;4.82;;;;;;;4.19;80.18;102883.22;4864586;29;20052;-51
2022/01/20 11:09:31;;;;;;;18.75;5.03;;;;;;;4.16;81.85;102880.84;4866005;29;20068;-50
2022/01/20 11:12:19;;;;;;;16.50;4.75;;;;;;;4.10;79.76;102882.41;4881104;29;20576;-50
2022/01/20 11:14:53;;;;;;;17.52;4.47;;;;;;;4.08;78.91;102879.03;4863929;29;20048;-51
2022/01/20 11:17:30;;;;;;;16.98;4.85;;;;;;;4.08;76.75;102878.19;4881073;29;20048;-50
2022/01/20 11:20:06;;;;;;;13.10;4.22;;;;;;;4.11;78.07;102881.38;4849686;29;20144;-50
2022/01/20 11:22:34;;;;;;;18.00;5.10;;;;;;;4.13;76.81;102860.47;4864744;29;20542;-50
2022/01/20 11:25:20;;;;;;;18.77;4.80;;;;;;;4.12;76.29;102864.19;4864493;29;20403;-51
2022/01/20 11:28:16;;;;;;;19.60;5.13;;;;;;;4.23;79.04;102855.72;4880162;29;20135;-50
2022/01/20 11:31:08;;;;;;;15.52;4.60;;;;;;;4.27;75.42;102854.34;4880884;29;20065;-49
2022/01/20 11:33:59;;;;;;;18.70;4.55;;;;;;;4.26;74.49;102860.75;4880036;29;20527;-52
2022/01/20 11:36:29;;;;;;;15.57;4.40;;;;;;;4.27;73.16;102845.41;4880696;29;20052;-50
2022/01/20 11:39:23;;;;;;;18.52;4.43;;;;;;;4.38;73.55;102841.50;4880805;29;20492;-51
2022/01/20 11:41:52;;;;;;;17.50;4.30;;;;;;;4.47;75.01;102853.91;4880745;29;20499;-50
2022/01/20 11:44:26;;;;;;;16.98;4.80;;;;;;;4.55;72.21;102843.06;4880852;29;20492;-51
2022/01/20 11:47:03;;;;;;;15.60;4.55;;;;;;;4.49;71.57;102838.38;4205066;29;10000688;-49
2022/01/20 11:49:36;;;;;;;19.33;5.22;;;;;;;4.44;71.44;102838.91;4877882;29;20056;-49
2022/01/20 11:52:08;;;;;;;15.57;4.30;;;;;;;4.47;71.38;102829.59;4877515;29;20072;-47
2022/01/20 11:54:41;;;;;;;18.33;4.95;;;;;;;4.47;71.05;102845.78;4877898;29;20144;-48
2022/01/20 11:57:12;;;;;;;14.60;4.82;;;;;;;4.45;70.94;102850.56;4876602;29;20315;-49
2022/01/20 11:59:46;;;;;;;15.73;4.30;;;;;;;4.45;70.32;102847.84;4877144;29;20101;-50
2022/01/20 12:02:38;;;;;;;13.98;4.10;;;;;;;4.46;70.70;102838.72;4877379;29;20401;-50
2022/01/20 12:05:30;;;;;;;18.23;4.60;;;;;;;4.49;69.85;102843.75;4858491;29;20061;-50
2022/01/20 12:08:18;;;;;;;16.35;4.55;;;;;;;4.51;69.95;102839.03;4851340;29;20737;-50
2022/01/20 12:11:01;;;;;;;16.70;4.20;;;;;;;4.55;71.52;102831.44;4877662;29;20095;-47
2022/01/20 12:13:30;;;;;;;16.38;3.90;;;;;;;4.59;71.35;102814.66;4877049;29;20048;-51
2022/01/20 12:16:00;;;;;;;15.35;4.57;;;;;;;4.62;69.57;102819.75;4876932;29;20105;-50
2022/01/20 12:18:32;;;;;;;22.65;4.10;;;;;;;4.64;70.68;102819.53;4874833;29;20049;-50
2022/01/20 12:21:02;;;;;;;14.50;3.67;;;;;;;4.63;69.93;102824.09;4878133;29;20124;-50
2022/01/20 12:23:29;;;;;;;12.75;4.13;;;;;;;4.62;69.18;102832.41;4879906;29;20068;-51
2022/01/20 12:26:04;;;;;;;15.60;4.47;;;;;;;4.58;68.42;102821.09;4880432;29;20045;-50
2022/01/20 12:28:32;;;;;;;12.18;3.67;;;;;;;4.55;68.83;102829.56;4880056;29;20052;-48
2022/01/20 12:31:05;;;;;;;16.90;4.32;;;;;;;4.56;69.61;102833.94;4862891;29;20075;-52
2022/01/20 12:33:35;;;;;;;12.20;4.00;;;;;;;4.56;70.14;102833.09;4880170;29;20424;-48
2022/01/20 12:36:05;;;;;;;10.93;3.33;;;;;;;4.57;70.37;102822.13;4880316;29;20049;-51
2022/01/20 12:38:39;;;;;;;14.07;3.95;;;;;;;4.54;67.20;102824.34;4879904;29;20056;-51
2022/01/20 12:41:06;;;;;;;14.50;3.97;;;;;;;4.51;66.88;102819.31;4879374;29;20045;-51
2022/01/20 12:43:58;;;;;;;17.83;4.43;;;;;;;4.48;67.56;102817.81;4880104;29;20052;-50
2022/01/20 12:46:30;;;;;;;14.63;3.85;;;;;;;4.53;67.45;102817.28;4879797;29;20511;-50
2022/01/20 12:49:05;;;;;;;17.35;4.18;;;;;;;4.57;68.16;102824.84;4879770;29;20515;-51
2022/01/20 12:51:41;;;;;;;13.63;4.05;;;;;;;4.62;67.73;102803.53;4879333;29;20103;-50
2022/01/20 12:54:21;;;;;;;13.75;3.85;;;;;;;4.66;68.65;102796.75;4879932;29;20611;-48
2022/01/20 12:56:50;;;;;;;16.20;4.30;;;;;;;4.68;68.14;102799.28;4879618;29;20056;-47
2022/01/20 12:59:21;;;;;;;16.60;4.80;;;;;;;4.67;68.28;102793.03;4879523;29;20049;-49
2022/01/20 13:02:23;;;;;;;16.30;4.95;;;;;;;4.69;68.65;102801.81;4878908;29;20527;-50
2022/01/20 13:05:00;;;;;;;15.07;4.35;;;;;;;4.65;68.88;102808.56;4879593;29;20052;-50